Time;durP1;ratioP1;P1;durP2;ratioP2;P2;SDS_P1;SDS_P2;PMS_P1;PMS_P2;Temp;Humidity;BMP_temperature;BMP_pressure;BME280_temperature;BME280_humidity;BME280_pressure;Samples;Min_cycle;Max_cycle;Signal;HPM_P1;HPM_P2
2023/11/10 00:02:12;;;;;;;10.82;9.93;;;;;;;;;;10023287;28;20046;-70
2023/11/10 00:07:04;;;;;;;11.40;10.35;;;;;;;;;;10032771;28;20057;-70
2023/11/10 00:11:56;;;;;;;12.10;10.75;;;;;;;;;;10034015;28;20308;-70
2023/11/10 00:16:48;;;;;;;11.10;10.10;;;;;;;;;;10032782;28;20335;-71
2023/11/10 00:21:41;;;;;;;11.75;10.63;;;;;;;;;;10031971;28;20054;-70
2023/11/10 00:26:34;;;;;;;10.13;9.23;;;;;;;;;;10033685;28;20452;-70
2023/11/10 00:31:26;;;;;;;8.90;8.10;;;;;;;;;;10032390;28;20045;-70
2023/11/10 00:36:18;;;;;;;9.48;8.68;;;;;;;;;;10030907;28;20049;-71
2023/11/10 00:41:11;;;;;;;9.90;9.00;;;;;;;;;;10045555;28;20091;-70
2023/11/10 00:46:03;;;;;;;10.32;9.32;;;;;;;;;;10033450;28;20037;-70
2023/11/10 00:50:55;;;;;;;9.02;8.23;;;;;;;;;;10070046;28;20064;-70
2023/11/10 00:55:47;;;;;;;9.65;8.65;;;;;;;;;;10057025;28;20057;-70
2023/11/10 01:00:39;;;;;;;9.48;8.68;;;;;;;;;;10058017;28;20038;-71
2023/11/10 01:05:31;;;;;;;10.65;9.65;;;;;;;;;;10070109;28;20104;-71
2023/11/10 01:10:23;;;;;;;9.68;8.77;;;;;;;;;;10069815;28;20069;-71
2023/11/10 01:15:15;;;;;;;10.18;9.38;;;;;;;;;;10031471;28;20053;-71
2023/11/10 01:20:10;;;;;;;11.02;10.13;;;;;;;;;;10029679;28;20372;-71
2023/11/10 01:25:05;;;;;;;11.65;10.65;;;;;;;;;;10030998;28;20069;-70
2023/11/10 01:29:57;;;;;;;11.50;10.50;;;;;;;;;;10031158;28;20038;-71
2023/11/10 01:34:49;;;;;;;13.10;11.77;;;;;;;;;;10039505;28;20416;-70
2023/11/10 01:39:41;;;;;;;12.07;10.88;;;;;;;;;;10029785;28;20517;-70
2023/11/10 01:44:35;;;;;;;11.27;10.20;;;;;;;;;;10029712;28;20356;-70
2023/11/10 01:49:28;;;;;;;10.77;9.85;;;;;;;;;;10026026;28;20093;-70
2023/11/10 01:54:23;;;;;;;9.95;9.00;;;;;;;;;;10011782;28;20463;-69
2023/11/10 01:59:16;;;;;;;9.77;8.88;;;;;;;;;;10013355;28;20042;-70
2023/11/10 02:04:11;;;;;;;10.90;9.38;;;;;;;;;;10004300;28;20366;-70
2023/11/10 02:09:03;;;;;;;10.70;9.70;;;;;;;;;;10028279;28;20057;-71
2023/11/10 02:14:02;;;;;;;12.10;10.90;;;;;;;;;;10016762;28;20081;-71
2023/11/10 02:18:59;;;;;;;10.88;9.80;;;;;;;;;;10024636;28;20054;-71
2023/11/10 02:23:55;;;;;;;13.80;12.50;;;;;;;;;;10028134;28;20042;-71
2023/11/10 02:28:47;;;;;;;13.60;12.32;;;;;;;;;;10027740;28;20468;-71
2023/11/10 02:33:39;;;;;;;12.15;10.95;;;;;;;;;;10028092;28;20465;-71
2023/11/10 02:38:31;;;;;;;13.43;11.88;;;;;;;;;;10029327;28;20057;-70
2023/11/10 02:43:24;;;;;;;13.73;12.32;;;;;;;;;;10025518;28;20045;-70
2023/11/10 02:48:16;;;;;;;14.85;13.32;;;;;;;;;;10025984;28;20100;-71
2023/11/10 02:53:07;;;;;;;15.25;13.75;;;;;;;;;;10021299;28;20042;-71
2023/11/10 02:57:59;;;;;;;15.15;13.10;;;;;;;;;;10010035;28;20080;-70
2023/11/10 03:02:51;;;;;;;14.50;12.95;;;;;;;;;;10019641;28;20030;-70
2023/11/10 03:07:43;;;;;;;15.27;13.68;;;;;;;;;;10007027;28;20058;-70
2023/11/10 03:12:35;;;;;;;16.05;14.35;;;;;;;;;;10027937;28;20053;-70
2023/11/10 03:17:29;;;;;;;13.95;12.55;;;;;;;;;;10027074;28;20045;-71
2023/11/10 03:22:22;;;;;;;13.32;11.73;;;;;;;;;;10027038;28;20087;-71
2023/11/10 03:27:14;;;;;;;13.43;11.48;;;;;;;;;;10027435;28;20038;-70
2023/11/10 03:32:08;;;;;;;13.45;11.73;;;;;;;;;;10034541;28;20041;-71
2023/11/10 03:37:00;;;;;;;14.07;12.55;;;;;;;;;;10018063;28;20045;-70
2023/11/10 03:41:59;;;;;;;12.73;11.38;;;;;;;;;;10033044;28;20034;-70
2023/11/10 03:46:51;;;;;;;13.05;11.27;;;;;;;;;;10033563;28;20034;-70
2023/11/10 03:51:44;;;;;;;12.50;10.52;;;;;;;;;;10033092;28;20275;-70
2023/11/10 03:56:36;;;;;;;11.85;9.73;;;;;;;;;;10034484;28;20164;-70
2023/11/10 04:01:28;;;;;;;12.77;10.75;;;;;;;;;;10032701;28;20096;-70
2023/11/10 04:06:20;;;;;;;15.25;11.20;;;;;;;;;;10029778;28;20044;-70
2023/11/10 04:11:28;;;;;;;13.43;11.38;;;;;;;;;;10024554;28;20044;-70
2023/11/10 04:16:24;;;;;;;12.07;10.07;;;;;;;;;;10032704;28;20133;-70
2023/11/10 04:21:18;;;;;;;13.98;11.35;;;;;;;;;;10025081;28;20505;-70
2023/11/10 04:26:10;;;;;;;13.80;11.70;;;;;;;;;;10031214;28;20501;-71
2023/11/10 04:31:02;;;;;;;13.18;11.43;;;;;;;;;;10030929;28;20046;-70
2023/11/10 04:35:58;;;;;;;16.15;13.00;;;;;;;;;;10030176;28;20540;-71
2023/11/10 04:40:50;;;;;;;15.35;13.10;;;;;;;;;;10031135;28;20112;-71
2023/11/10 04:45:42;;;;;;;16.55;14.07;;;;;;;;;;10031897;28;20052;-71
2023/11/10 04:50:34;;;;;;;15.32;13.23;;;;;;;;;;10032584;28;20054;-71
2023/11/10 04:55:28;;;;;;;15.85;13.02;;;;;;;;;;10031098;28;20416;-71
2023/11/10 05:00:23;;;;;;;17.48;13.60;;;;;;;;;;10031386;28;20042;-70
2023/11/10 05:05:15;;;;;;;18.35;14.32;;;;;;;;;;10027392;28;20058;-70
2023/11/10 05:10:08;;;;;;;14.57;13.02;;;;;;;;;;10030357;28;20065;-71
2023/11/10 05:15:04;;;;;;;16.05;14.35;;;;;;;;;;10030432;28;20038;-71
2023/11/10 05:19:56;;;;;;;16.92;14.15;;;;;;;;;;10031030;28;20042;-71
2023/11/10 05:24:48;;;;;;;16.02;14.25;;;;;;;;;;10029568;28;20413;-70
2023/11/10 05:29:40;;;;;;;17.10;15.32;;;;;;;;;;10032647;28;20046;-70
2023/11/10 05:34:32;;;;;;;18.17;15.80;;;;;;;;;;10028580;28;20037;-71
2023/11/10 05:39:24;;;;;;;19.13;16.23;;;;;;;;;;10031150;28;20049;-70
2023/11/10 05:44:16;;;;;;;18.60;16.60;;;;;;;;;;10029552;28;20044;-71
2023/11/10 05:49:08;;;;;;;16.45;14.75;;;;;;;;;;10028349;28;20113;-70
2023/11/10 05:54:00;;;;;;;18.85;16.42;;;;;;;;;;10028589;28;20497;-71
2023/11/10 05:58:52;;;;;;;18.77;15.18;;;;;;;;;;10030419;28;20350;-71
2023/11/10 06:03:43;;;;;;;19.48;14.95;;;;;;;;;;10029331;28;20373;-70
2023/11/10 06:08:36;;;;;;;17.98;16.08;;;;;;;;;;10029055;28;20042;-70
2023/11/10 06:13:28;;;;;;;17.08;15.25;;;;;;;;;;10026574;28;20072;-70
2023/11/10 06:18:24;;;;;;;25.63;14.70;;;;;;;;;;10011180;28;20180;-70
2023/11/10 06:23:16;;;;;;;19.10;16.30;;;;;;;;;;10007843;28;20048;-71
2023/11/10 06:28:07;;;;;;;17.30;15.50;;;;;;;;;;10043748;28;20052;-71
2023/11/10 06:33:00;;;;;;;18.52;15.63;;;;;;;;;;10040866;28;20432;-71
2023/11/10 06:37:52;;;;;;;16.65;13.70;;;;;;;;;;10039254;28;20468;-70
2023/11/10 06:42:44;;;;;;;17.00;15.20;;;;;;;;;;10057810;28;20461;-70
2023/11/10 06:47:36;;;;;;;21.98;17.42;;;;;;;;;;10051795;28;20053;-70
2023/11/10 06:52:28;;;;;;;19.05;16.92;;;;;;;;;;10043408;28;20046;-71
2023/11/10 06:57:20;;;;;;;21.08;17.88;;;;;;;;;;10054949;28;20132;-70
2023/11/10 07:02:12;;;;;;;19.92;17.85;;;;;;;;;;10040732;28;20046;-71
2023/11/10 07:07:05;;;;;;;22.23;19.08;;;;;;;;;;10036173;28;20046;-71
2023/11/10 07:11:57;;;;;;;20.55;17.40;;;;;;;;;;10056554;28;20073;-71
2023/11/10 07:16:49;;;;;;;20.80;17.48;;;;;;;;;;10043687;28;20064;-71
2023/11/10 07:21:43;;;;;;;25.30;20.13;;;;;;;;;;10055930;28;20074;-71
2023/11/10 07:26:35;;;;;;;24.65;19.65;;;;;;;;;;10042626;28;20084;-70
2023/11/10 07:31:28;;;;;;;22.48;18.30;;;;;;;;;;10023935;28;20074;-70
2023/11/10 07:36:19;;;;;;;24.17;19.40;;;;;;;;;;10054550;28;20041;-70
2023/11/10 07:41:11;;;;;;;26.20;21.00;;;;;;;;;;10018033;28;20100;-70
2023/11/10 07:46:04;;;;;;;23.83;19.83;;;;;;;;;;10042652;28;20045;-70
2023/11/10 07:50:58;;;;;;;25.90;21.52;;;;;;;;;;10055721;28;20110;-70
2023/11/10 07:55:50;;;;;;;25.90;20.23;;;;;;;;;;10049317;28;20084;-71
2023/11/10 08:00:41;;;;;;;25.27;21.25;;;;;;;;;;10026693;28;20050;-73
2023/11/10 08:05:33;;;;;;;24.10;19.88;;;;;;;;;;10008197;28;20054;-73
2023/11/10 08:10:26;;;;;;;24.67;18.98;;;;;;;;;;10015718;28;20041;-73
2023/11/10 08:15:18;;;;;;;19.05;16.15;;;;;;;;;;10040648;28;20100;-72
2023/11/10 08:20:10;;;;;;;17.48;15.18;;;;;;;;;;10024170;28;20216;-73
2023/11/10 08:25:03;;;;;;;20.58;16.83;;;;;;;;;;10027754;28;20382;-72
2023/11/10 08:29:55;;;;;;;20.25;17.25;;;;;;;;;;10024330;28;20132;-73
2023/11/10 08:34:47;;;;;;;26.70;20.88;;;;;;;;;;10020464;28;20460;-73
2023/11/10 08:39:39;;;;;;;20.95;17.98;;;;;;;;;;10011377;28;20105;-73
2023/11/10 08:44:31;;;;;;;20.60;17.50;;;;;;;;;;10043366;28;20041;-72
2023/11/10 08:49:23;;;;;;;47.75;38.42;;;;;;;;;;10026996;28;20516;-73
2023/11/10 08:54:15;;;;;;;19.95;17.23;;;;;;;;;;10027809;28;20064;-73
2023/11/10 08:59:09;;;;;;;14.98;12.82;;;;;;;;;;10022933;28;20099;-72
2023/11/10 09:04:01;;;;;;;18.35;16.20;;;;;;;;;;10019648;28;20396;-72
2023/11/10 09:09:09;;;;;;;21.13;17.57;;;;;;;;;;10020492;28;20064;-72
2023/11/10 09:14:01;;;;;;;18.50;15.25;;;;;;;;;;10064166;28;20080;-73
2023/11/10 09:18:53;;;;;;;15.40;13.80;;;;;;;;;;10063495;28;20045;-72
2023/11/10 09:23:46;;;;;;;16.77;14.90;;;;;;;;;;10055429;28;20043;-73
2023/11/10 09:28:38;;;;;;;21.80;15.65;;;;;;;;;;10058273;28;20473;-72
2023/11/10 09:33:29;;;;;;;19.70;15.77;;;;;;;;;;10056655;28;20119;-72
2023/11/10 09:38:21;;;;;;;17.55;15.15;;;;;;;;;;10032037;28;20074;-72
2023/11/10 09:43:14;;;;;;;17.20;14.43;;;;;;;;;;10048970;28;20038;-73
2023/11/10 09:48:08;;;;;;;16.42;14.68;;;;;;;;;;10067040;28;20543;-73
2023/11/10 09:53:00;;;;;;;22.05;16.90;;;;;;;;;;10066797;28;20041;-72
2023/11/10 09:57:54;;;;;;;19.02;16.90;;;;;;;;;;10036031;28;20050;-73
2023/11/10 10:02:46;;;;;;;17.73;15.82;;;;;;;;;;10038783;28;20948;-72
2023/11/10 10:07:39;;;;;;;23.30;19.25;;;;;;;;;;10060813;28;20131;-71
2023/11/10 10:12:35;;;;;;;20.02;16.88;;;;;;;;;;10061752;28;20073;-73
2023/11/10 10:17:37;;;;;;;24.02;21.45;;;;;;;;;;10023196;28;20050;-73
2023/11/10 10:22:30;;;;;;;21.38;18.45;;;;;;;;;;10016707;28;20038;-73
2023/11/10 10:27:21;;;;;;;20.00;16.75;;;;;;;;;;10014200;28;20045;-73
2023/11/10 10:32:15;;;;;;;21.77;17.88;;;;;;;;;;10009893;28;20470;-74
2023/11/10 10:37:11;;;;;;;19.98;15.77;;;;;;;;;;10023200;28;20536;-73
2023/11/10 10:42:06;;;;;;;19.88;17.73;;;;;;;;;;10025623;28;20381;-72
2023/11/10 10:46:58;;;;;;;18.35;16.20;;;;;;;;;;10025410;28;20524;-73
2023/11/10 10:51:50;;;;;;;18.00;15.43;;;;;;;;;;10012052;28;20380;-72
2023/11/10 10:56:43;;;;;;;18.48;15.95;;;;;;;;;;10024613;28;20049;-72
2023/11/10 11:01:36;;;;;;;17.48;15.75;;;;;;;;;;10025249;28;20045;-72
2023/11/10 11:06:48;;;;;;;19.45;17.35;;;;;;;;;;10026252;28;20060;-72
2023/11/10 11:11:47;;;;;;;20.27;18.13;;;;;;;;;;10024473;28;20050;-72
2023/11/10 11:17:01;;;;;;;17.73;15.93;;;;;;;;;;10025748;28;20052;-72
2023/11/10 11:21:53;;;;;;;18.17;16.38;;;;;;;;;;10050442;28;20144;-72
2023/11/10 11:26:59;;;;;;;17.02;14.75;;;;;;;;;;10059958;28;20057;-72
2023/11/10 11:31:51;;;;;;;19.10;17.10;;;;;;;;;;10041623;28;20107;-72
2023/11/10 11:36:47;;;;;;;17.38;15.00;;;;;;;;;;10062338;28;20476;-72
2023/11/10 11:41:40;;;;;;;19.90;17.80;;;;;;;;;;10038732;28;20046;-72
2023/11/10 11:46:35;;;;;;;20.33;18.23;;;;;;;;;;10047826;28;20141;-72
2023/11/10 11:51:29;;;;;;;18.95;16.95;;;;;;;;;;10028291;28;20053;-72
2023/11/10 11:56:21;;;;;;;17.30;14.18;;;;;;;;;;10021234;28;20046;-72
2023/11/10 12:01:14;;;;;;;17.45;14.45;;;;;;;;;;10027356;28;20042;-72
2023/11/10 12:06:07;;;;;;;21.17;17.30;;;;;;;;;;10030516;28;20456;-73
2023/11/10 12:10:59;;;;;;;17.80;15.95;;;;;;;;;;10023464;28;20050;-72
2023/11/10 12:15:51;;;;;;;18.75;16.30;;;;;;;;;;10023768;28;20045;-72
2023/11/10 12:20:44;;;;;;;16.85;14.73;;;;;;;;;;10029688;28;20045;-72
2023/11/10 12:25:36;;;;;;;27.00;20.65;;;;;;;;;;10032107;28;20045;-72
2023/11/10 12:30:28;;;;;;;20.25;16.90;;;;;;;;;;10037011;28;20046;-71
2023/11/10 12:35:21;;;;;;;21.05;18.00;;;;;;;;;;10046539;28;20061;-72
2023/11/10 12:40:18;;;;;;;19.30;16.50;;;;;;;;;;10036403;28;20100;-72
2023/11/10 12:45:10;;;;;;;19.38;17.33;;;;;;;;;;10026385;28;20451;-72
2023/11/10 12:50:03;;;;;;;17.73;15.82;;;;;;;;;;10033506;28;20054;-72
2023/11/10 12:54:55;;;;;;;19.73;17.73;;;;;;;;;;10032964;28;20384;-73
2023/11/10 12:59:47;;;;;;;19.65;16.65;;;;;;;;;;10028088;28;20054;-73
2023/11/10 13:04:40;;;;;;;22.38;18.92;;;;;;;;;;10030175;28;20495;-72
2023/11/10 13:09:33;;;;;;;22.20;19.90;;;;;;;;;;10030352;28;20046;-72
2023/11/10 13:14:25;;;;;;;19.58;17.10;;;;;;;;;;10025890;28;20053;-75
2023/11/10 13:19:17;;;;;;;18.20;16.30;;;;;;;;;;10026487;28;20081;-72
2023/11/10 13:24:10;;;;;;;20.75;17.65;;;;;;;;;;10026935;28;20037;-72
2023/11/10 13:29:05;;;;;;;19.30;16.67;;;;;;;;;;10022707;28;20089;-72
2023/11/10 13:33:58;;;;;;;19.48;17.50;;;;;;;;;;10023895;28;20049;-71
2023/11/10 13:38:51;;;;;;;20.48;18.33;;;;;;;;;;10027621;28;20392;-73
2023/11/10 13:43:44;;;;;;;20.08;18.00;;;;;;;;;;10024951;28;20121;-72
2023/11/10 13:48:36;;;;;;;26.38;23.55;;;;;;;;;;10029828;28;20473;-71
2023/11/10 13:53:28;;;;;;;19.92;17.63;;;;;;;;;;10018391;28;20038;-71
2023/11/10 13:58:21;;;;;;;18.73;16.73;;;;;;;;;;10023625;28;20084;-71
2023/11/10 14:03:12;;;;;;;19.08;16.23;;;;;;;;;;10013894;28;20050;-72
2023/11/10 14:08:05;;;;;;;16.00;14.32;;;;;;;;;;10035245;28;20129;-72
2023/11/10 14:12:56;;;;;;;19.33;16.08;;;;;;;;;;10025317;28;20529;-72
2023/11/10 14:17:48;;;;;;;23.40;19.33;;;;;;;;;;10024537;28;20049;-72
2023/11/10 14:22:43;;;;;;;19.02;16.08;;;;;;;;;;10005598;28;20038;-72
2023/11/10 14:27:35;;;;;;;22.02;18.20;;;;;;;;;;10015415;28;20173;-72
2023/11/10 14:32:27;;;;;;;22.95;18.80;;;;;;;;;;10029746;28;20472;-72
2023/11/10 14:37:19;;;;;;;28.10;20.98;;;;;;;;;;10028733;28;20049;-72
2023/11/10 14:42:11;;;;;;;24.02;18.77;;;;;;;;;;10018950;28;20060;-72
2023/11/10 14:47:25;;;;;;;18.15;15.48;;;;;;;;;;10024058;28;20092;-72
2023/11/10 14:52:17;;;;;;;21.52;16.50;;;;;;;;;;10011337;28;20050;-72
2023/11/10 14:57:10;;;;;;;21.67;17.23;;;;;;;;;;10039457;28;20455;-72
2023/11/10 15:02:02;;;;;;;20.58;16.65;;;;;;;;;;10041003;28;20042;-70
2023/11/10 15:06:54;;;;;;;25.20;21.20;;;;;;;;;;10025653;28;20072;-71
2023/11/10 15:11:48;;;;;;;19.17;16.73;;;;;;;;;;10039788;28;20077;-72
2023/11/10 15:16:45;;;;;;;22.95;19.50;;;;;;;;;;10062715;28;20038;-70
2023/11/10 15:21:37;;;;;;;25.17;18.50;;;;;;;;;;10065169;28;20072;-69
2023/11/10 15:26:29;;;;;;;23.65;18.65;;;;;;;;;;10069568;28;20045;-71
2023/11/10 15:31:21;;;;;;;24.23;19.88;;;;;;;;;;10066035;28;20126;-72
2023/11/10 15:36:18;;;;;;;29.95;20.88;;;;;;;;;;10059555;28;20052;-71
2023/11/10 15:41:10;;;;;;;24.85;20.13;;;;;;;;;;10073955;28;20468;-71
2023/11/10 15:46:02;;;;;;;27.30;20.55;;;;;;;;;;10071463;28;20042;-71
2023/11/10 15:50:54;;;;;;;28.60;21.40;;;;;;;;;;10076087;28;20061;-73
2023/11/10 15:55:46;;;;;;;28.23;21.27;;;;;;;;;;10076630;28;20144;-72
2023/11/10 16:00:38;;;;;;;28.05;21.55;;;;;;;;;;10076048;28;20049;-73
2023/11/10 16:05:30;;;;;;;24.75;20.45;;;;;;;;;;10072419;28;20237;-73
2023/11/10 16:10:22;;;;;;;35.90;25.60;;;;;;;;;;10067474;28;20092;-72
2023/11/10 16:15:16;;;;;;;39.22;28.60;;;;;;;;;;10062587;28;20042;-72
2023/11/10 16:20:12;;;;;;;32.60;24.33;;;;;;;;;;10069778;28;20063;-72
2023/11/10 16:25:05;;;;;;;34.35;26.67;;;;;;;;;;10065303;28;20595;-72
2023/11/10 16:29:57;;;;;;;29.63;23.08;;;;;;;;;;10051059;28;20041;-73
2023/11/10 16:34:50;;;;;;;31.50;24.38;;;;;;;;;;10048901;28;20512;-72
2023/11/10 16:39:42;;;;;;;37.17;30.83;;;;;;;;;;10055343;28;20084;-72
2023/11/10 16:44:34;;;;;;;33.20;25.20;;;;;;;;;;10047188;28;20053;-73
2023/11/10 16:49:26;;;;;;;33.67;27.08;;;;;;;;;;10060220;28;20108;-72
2023/11/10 16:54:21;;;;;;;31.38;25.00;;;;;;;;;;10070604;28;20489;-73
2023/11/10 16:59:13;;;;;;;28.98;24.17;;;;;;;;;;10069576;28;20133;-73
2023/11/10 17:04:05;;;;;;;37.78;28.45;;;;;;;;;;10065765;28;20045;-72
2023/11/10 17:08:58;;;;;;;34.38;26.70;;;;;;;;;;10064157;28;20128;-73
2023/11/10 17:13:52;;;;;;;50.53;36.30;;;;;;;;;;10052518;28;20120;-72
2023/11/10 17:18:45;;;;;;;43.15;32.22;;;;;;;;;;10063321;28;20143;-72
2023/11/10 17:23:37;;;;;;;66.80;52.20;;;;;;;;;;10059119;28;20045;-72
2023/11/10 17:28:29;;;;;;;50.75;38.22;;;;;;;;;;10048149;28;20046;-72
2023/11/10 17:33:22;;;;;;;38.13;27.23;;;;;;;;;;10041904;28;20106;-72
2023/11/10 17:38:14;;;;;;;35.22;26.30;;;;;;;;;;10045286;28;20128;-72
2023/11/10 17:43:08;;;;;;;40.95;28.48;;;;;;;;;;10060856;28;20049;-72
2023/11/10 17:48:01;;;;;;;32.00;25.02;;;;;;;;;;10058840;28;20068;-75
2023/11/10 17:52:53;;;;;;;37.55;27.20;;;;;;;;;;10066720;28;21579;-72
2023/11/10 17:57:45;;;;;;;37.90;27.67;;;;;;;;;;10067283;28;20049;-72
2023/11/10 18:02:37;;;;;;;35.42;25.50;;;;;;;;;;10066983;28;20048;-72
2023/11/10 18:07:30;;;;;;;40.53;30.48;;;;;;;;;;10056908;28;20046;-72
2023/11/10 18:12:21;;;;;;;34.55;27.77;;;;;;;;;;10049704;28;20050;-74
2023/11/10 18:17:14;;;;;;;35.97;26.90;;;;;;;;;;10066937;28;20468;-71
2023/11/10 18:22:05;;;;;;;40.95;27.90;;;;;;;;;;10056033;28;20108;-71
2023/11/10 18:26:57;;;;;;;34.92;27.83;;;;;;;;;;10066148;28;20050;-71
2023/11/10 18:31:49;;;;;;;36.28;26.63;;;;;;;;;;10066564;28;20107;-71
2023/11/10 18:36:41;;;;;;;36.38;27.67;;;;;;;;;;10044490;28;20093;-73
2023/11/10 18:41:33;;;;;;;37.88;28.50;;;;;;;;;;10024301;28;20112;-71
2023/11/10 18:46:25;;;;;;;39.60;28.65;;;;;;;;;;10026108;28;20044;-71
2023/11/10 18:51:17;;;;;;;38.85;29.95;;;;;;;;;;10024314;28;20060;-72
2023/11/10 18:56:09;;;;;;;33.65;28.08;;;;;;;;;;10023572;28;20061;-73
2023/11/10 19:01:02;;;;;;;36.60;27.33;;;;;;;;;;10026299;28;20042;-73
2023/11/10 19:05:54;;;;;;;32.95;25.92;;;;;;;;;;10025789;28;20049;-74
2023/11/10 19:10:46;;;;;;;32.58;26.85;;;;;;;;;;10026452;28;20116;-71
2023/11/10 19:15:38;;;;;;;33.53;26.77;;;;;;;;;;10029691;28;20104;-74
2023/11/10 19:20:30;;;;;;;30.20;24.73;;;;;;;;;;10028058;28;20085;-73
2023/11/10 19:25:21;;;;;;;31.20;25.60;;;;;;;;;;10033014;28;20038;-70
2023/11/10 19:30:14;;;;;;;30.83;26.15;;;;;;;;;;10029573;28;20100;-71
2023/11/10 19:35:06;;;;;;;34.45;27.33;;;;;;;;;;10029862;28;20455;-71
2023/11/10 19:39:58;;;;;;;32.03;23.30;;;;;;;;;;10052944;28;20060;-73
2023/11/10 19:44:52;;;;;;;28.98;23.70;;;;;;;;;;10039672;28;20127;-73
2023/11/10 19:49:44;;;;;;;26.90;23.58;;;;;;;;;;10047839;28;20053;-72
2023/11/10 19:54:46;;;;;;;26.38;22.75;;;;;;;;;;10038778;28;20533;-73
2023/11/10 19:59:40;;;;;;;30.33;26.13;;;;;;;;;;10046096;28;20054;-73
2023/11/10 20:04:32;;;;;;;33.67;26.42;;;;;;;;;;10043236;28;20055;-72
2023/11/10 20:09:24;;;;;;;31.38;27.83;;;;;;;;;;10057067;28;20095;-73
2023/11/10 20:14:17;;;;;;;27.30;23.13;;;;;;;;;;10064600;28;20076;-73
2023/11/10 20:19:10;;;;;;;28.40;23.80;;;;;;;;;;10060171;28;20136;-73
2023/11/10 20:24:02;;;;;;;30.25;23.48;;;;;;;;;;10053678;28;20143;-72
2023/11/10 20:28:54;;;;;;;31.20;25.25;;;;;;;;;;10053540;28;20572;-73
2023/11/10 20:33:46;;;;;;;26.55;22.05;;;;;;;;;;10064001;28;20042;-73
2023/11/10 20:38:38;;;;;;;26.77;22.58;;;;;;;;;;10053095;28;20057;-72
2023/11/10 20:43:30;;;;;;;27.13;22.70;;;;;;;;;;10052992;28;20041;-72
2023/11/10 20:48:22;;;;;;;24.52;21.00;;;;;;;;;;10052143;28;20056;-73
2023/11/10 20:53:14;;;;;;;27.20;21.23;;;;;;;;;;10049296;28;20045;-73
2023/11/10 20:58:07;;;;;;;26.10;22.20;;;;;;;;;;10046976;28;20092;-73
2023/11/10 21:02:59;;;;;;;24.52;18.95;;;;;;;;;;10054695;28;20048;-73
2023/11/10 21:07:51;;;;;;;27.33;19.67;;;;;;;;;;10040825;28;20053;-74
2023/11/10 21:12:43;;;;;;;26.98;21.48;;;;;;;;;;10030439;28;20485;-73
2023/11/10 21:17:36;;;;;;;25.20;19.48;;;;;;;;;;10029179;28;20077;-72
2023/11/10 21:22:28;;;;;;;24.75;19.13;;;;;;;;;;10029750;28;20038;-72
2023/11/10 21:27:20;;;;;;;31.20;22.65;;;;;;;;;;10029899;28;20054;-73
2023/11/10 21:32:12;;;;;;;30.73;18.98;;;;;;;;;;10028915;28;20045;-73
2023/11/10 21:37:04;;;;;;;28.48;22.02;;;;;;;;;;10030040;28;20483;-73
2023/11/10 21:41:56;;;;;;;22.00;17.63;;;;;;;;;;10029101;28;20078;-71
2023/11/10 21:46:48;;;;;;;21.80;16.70;;;;;;;;;;10028740;28;20421;-70
2023/11/10 21:51:41;;;;;;;26.98;21.42;;;;;;;;;;10027069;28;20085;-72
2023/11/10 21:56:36;;;;;;;25.10;18.27;;;;;;;;;;10028128;28;20377;-72
2023/11/10 22:01:27;;;;;;;22.58;16.63;;;;;;;;;;10027806;28;20041;-72
2023/11/10 22:06:19;;;;;;;23.63;16.65;;;;;;;;;;10029036;28;20053;-71
2023/11/10 22:11:11;;;;;;;20.05;17.10;;;;;;;;;;10027768;28;20042;-72
2023/11/10 22:16:04;;;;;;;20.08;16.30;;;;;;;;;;10026897;28;20045;-70
2023/11/10 22:20:56;;;;;;;28.27;22.52;;;;;;;;;;10028142;28;20042;-70
2023/11/10 22:25:48;;;;;;;18.50;16.35;;;;;;;;;;10027513;28;20050;-70
2023/11/10 22:30:40;;;;;;;23.42;17.17;;;;;;;;;;10027727;28;20342;-70
2023/11/10 22:35:32;;;;;;;20.33;15.63;;;;;;;;;;10026849;28;20048;-70
2023/11/10 22:40:24;;;;;;;21.25;16.38;;;;;;;;;;10025948;28;20181;-69
2023/11/10 22:45:16;;;;;;;31.63;19.60;;;;;;;;;;10027442;28;20132;-70
2023/11/10 22:50:09;;;;;;;22.65;16.80;;;;;;;;;;10026566;28;20452;-70
2023/11/10 22:55:01;;;;;;;22.65;17.35;;;;;;;;;;10026710;28;20053;-70
2023/11/10 22:59:53;;;;;;;17.27;14.48;;;;;;;;;;10027091;28;20104;-71
2023/11/10 23:04:45;;;;;;;17.65;15.25;;;;;;;;;;10026497;28;20445;-70
2023/11/10 23:09:37;;;;;;;17.65;14.90;;;;;;;;;;10025745;28;20104;-71
2023/11/10 23:14:28;;;;;;;19.65;15.90;;;;;;;;;;10012434;28;20048;-70
2023/11/10 23:19:20;;;;;;;21.77;16.45;;;;;;;;;;10012959;28;20050;-71
2023/11/10 23:24:12;;;;;;;16.63;13.70;;;;;;;;;;10025781;28;20045;-70
2023/11/10 23:29:04;;;;;;;15.45;12.70;;;;;;;;;;10026179;28;20049;-71
2023/11/10 23:33:56;;;;;;;17.45;13.63;;;;;;;;;;10025844;28;20064;-71
2023/11/10 23:38:48;;;;;;;16.85;13.32;;;;;;;;;;10025211;28;20108;-70
2023/11/10 23:43:40;;;;;;;14.90;12.50;;;;;;;;;;10028371;28;20532;-70
2023/11/10 23:48:32;;;;;;;16.60;11.40;;;;;;;;;;10033286;28;20050;-70
2023/11/10 23:53:25;;;;;;;17.52;11.82;;;;;;;;;;10049686;28;20389;-70
2023/11/10 23:58:17;;;;;;;14.75;10.18;;;;;;;;;;10072201;28;20464;-70
